Time;durP1;ratioP1;P1;durP2;ratioP2;P2;SDS_P1;SDS_P2;PMS_P1;PMS_P2;Temp;Humidity;BMP_temperature;BMP_pressure;BME280_temperature;BME280_humidity;BME280_pressure;Samples;Min_cycle;Max_cycle;Signal;HPM_P1;HPM_P2
2023/01/31 00:01:22;;;;;;;;;;;;;;;0.66;93.96;97876.44;105259;1266;99262;-67
2023/01/31 00:03:56;;;;;;;;;;;;;;;0.68;94.00;97878.60;105267;1267;100538;-67
2023/01/31 00:06:28;;;;;;;;;;;;;;;0.72;93.63;97877.14;105296;1265;99275;-68
2023/01/31 00:08:55;;;;;;;;;;;;;;;0.75;93.90;97881.79;105358;1264;113285;-68
2023/01/31 00:11:24;;;;;;;;;;;;;;;0.79;93.53;97879.73;105369;1260;99290;-68
2023/01/31 00:13:51;;;;;;;;;;;;;;;0.81;93.85;97880.17;105355;1264;108149;-68
2023/01/31 00:16:20;;;;;;;;;;;;;;;0.81;93.79;97883.90;105330;1252;99320;-68
2023/01/31 00:18:47;;;;;;;;;;;;;;;0.84;93.81;97884.59;105324;1264;99291;-69
2023/01/31 00:21:16;;;;;;;;;;;;;;;0.85;94.11;97882.77;105200;1258;99194;-68
2023/01/31 00:23:44;;;;;;;;;;;;;;;0.86;93.85;97887.34;105306;1257;99292;-68
2023/01/31 00:26:14;;;;;;;;;;;;;;;0.84;93.95;97889.77;105371;1257;108611;-69
2023/01/31 00:28:42;;;;;;;;;;;;;;;0.82;93.91;97887.56;105296;1266;99184;-69
2023/01/31 00:31:09;;;;;;;;;;;;;;;0.83;93.90;97890.20;105398;1264;99182;-69
2023/01/31 00:33:38;;;;;;;;;;;;;;;0.84;93.84;97896.30;105384;1256;112280;-71
2023/01/31 00:36:06;;;;;;;;;;;;;;;0.85;93.82;97899.00;105241;1256;100534;-70
2023/01/31 00:38:33;;;;;;;;;;;;;;;0.88;93.56;97901.76;105256;1267;108155;-71
2023/01/31 00:41:00;;;;;;;;;;;;;;;0.92;93.38;97903.06;105298;1257;99228;-72
2023/01/31 00:43:27;;;;;;;;;;;;;;;0.93;93.40;97908.55;105392;1256;100569;-71
2023/01/31 00:45:55;;;;;;;;;;;;;;;0.95;93.20;97914.27;105345;1266;99291;-71
2023/01/31 00:48:21;;;;;;;;;;;;;;;0.97;92.93;97912.18;105316;1264;99334;-72
2023/01/31 00:50:48;;;;;;;;;;;;;;;0.98;92.75;97909.87;105317;1257;99697;-72
2023/01/31 00:53:17;;;;;;;;;;;;;;;0.98;92.63;97912.56;105352;1257;99223;-72
2023/01/31 00:55:44;;;;;;;;;;;;;;;0.99;92.33;97910.14;105397;1264;99320;-72
2023/01/31 00:58:11;;;;;;;;;;;;;;;0.98;92.12;97914.08;105321;1256;99274;-72
2023/01/31 01:00:37;;;;;;;;;;;;;;;0.94;91.92;97914.87;106098;1257;99265;-72
2023/01/31 01:03:04;;;;;;;;;;;;;;;0.90;92.02;97918.77;106469;1266;99245;-72
2023/01/31 01:05:31;;;;;;;;;;;;;;;0.87;92.07;97922.05;105256;1266;100561;-73
2023/01/31 01:07:58;;;;;;;;;;;;;;;0.85;91.72;97927.22;105138;1259;113627;-72
2023/01/31 01:10:24;;;;;;;;;;;;;;;0.85;91.59;97930.94;105326;1257;99331;-72
2023/01/31 01:12:51;;;;;;;;;;;;;;;0.87;91.69;97944.27;105246;1264;99243;-73
2023/01/31 01:15:18;;;;;;;;;;;;;;;0.88;91.62;97950.41;105160;1266;99257;-73
2023/01/31 01:17:45;;;;;;;;;;;;;;;0.89;91.73;97954.58;105102;1263;99260;-73
2023/01/31 09:45:51;;;;;;;10.10;4.00;;;;;;;1.75;78.89;98556.58;102681;1294;649722;-68
2023/01/31 09:48:28;;;;;;;12.50;3.20;;;;;;;1.73;78.64;98552.70;103518;1280;1022627;-67
2023/01/31 09:50:58;;;;;;;9.00;3.30;;;;;;;1.62;78.72;98552.94;104572;1276;94252;-70
2023/01/31 09:53:31;;;;;;;;;;;;;;;1.53;79.01;98558.59;104180;1271;107214;-68
2023/01/31 09:56:11;;;;;;;6.50;2.50;;;;;;;1.47;79.51;98558.86;104457;1267;99151;-67
2023/01/31 09:59:24;;;;;;;8.90;3.10;;;;;;;1.38;79.44;98562.66;104535;1269;108595;-68
2023/01/31 10:01:57;;;;;;;9.60;2.70;;;;;;;1.31;79.87;98562.70;104519;1277;94267;-70
2023/01/31 10:04:52;;;;;;;12.30;3.60;;;;;;;1.32;80.02;98564.98;104398;1267;94567;-68
2023/01/31 10:08:18;;;;;;;10.90;3.30;;;;;;;1.32;79.87;98562.61;104498;1267;107775;-67
2023/01/31 10:10:56;;;;;;;10.50;3.50;;;;;;;1.34;80.04;98560.84;103884;1273;99117;-68
2023/01/31 10:13:36;;;;;;;10.20;3.20;;;;;;;1.36;79.71;98558.31;103991;1269;108638;-68
2023/01/31 10:16:27;;;;;;;7.50;3.40;;;;;;;1.38;79.05;98560.50;103928;1284;95206;-70
2023/01/31 10:19:07;;;;;;;12.60;4.00;;;;;;;1.39;78.75;98559.77;103892;1273;95244;-68
2023/01/31 10:21:46;;;;;;;7.00;2.40;;;;;;;1.42;78.92;98560.54;103913;1273;109131;-68
2023/01/31 10:24:25;;;;;;;8.30;3.30;;;;;;;1.45;78.30;98556.14;103910;1276;99351;-68
2023/01/31 10:26:57;;;;;;;10.00;3.30;;;;;;;1.51;78.66;98557.23;103979;1275;108332;-68
2023/01/31 10:29:34;;;;;;;9.70;3.40;;;;;;;1.57;78.71;98546.80;103950;1275;95322;-67
2023/01/31 10:32:13;;;;;;;8.90;3.00;;;;;;;1.60;78.55;98540.71;103997;1276;95642;-68
2023/01/31 10:34:51;;;;;;;7.60;3.20;;;;;;;1.64;78.12;98536.27;103939;1273;109456;-68
2023/01/31 10:37:33;;;;;;;10.90;3.50;;;;;;;1.69;77.68;98533.81;103897;1270;99405;-67
2023/01/31 10:40:12;;;;;;;12.90;3.80;;;;;;;1.75;77.71;98540.73;103909;1283;108620;-68
2023/01/31 10:42:44;;;;;;;11.10;5.60;;;;;;;1.78;76.07;98538.36;104028;1269;95400;-72
2023/01/31 10:45:29;;;;;;;10.70;3.00;;;;;;;1.81;75.69;98541.31;104074;1271;95409;-73
2023/01/31 10:48:24;;;;;;;8.40;2.60;;;;;;;1.88;75.72;98541.84;104487;1269;109194;-71
2023/01/31 10:51:17;;;;;;;8.60;3.20;;;;;;;1.92;75.50;98543.29;104506;1268;98597;-70
2023/01/31 10:54:12;;;;;;;8.50;3.20;;;;;;;1.97;76.60;98542.45;104519;1269;109884;-70
2023/01/31 10:56:43;;;;;;;11.70;3.60;;;;;;;2.01;76.34;98542.31;104616;1264;95187;-70
2023/01/31 10:59:31;;;;;;;;;;;;;;;2.00;76.17;98542.15;104488;1267;96139;-70
2023/01/31 11:02:01;;;;;;;7.90;2.90;;;;;;;1.94;75.84;98537.68;104536;1267;110267;-68
2023/01/31 11:04:40;;;;;;;9.10;3.40;;;;;;;1.91;76.02;98538.40;104549;1267;97956;-70
2023/01/31 11:07:08;;;;;;;10.70;3.70;;;;;;;1.87;76.73;98536.33;104525;1267;107662;-71
2023/01/31 11:09:43;;;;;;;7.60;3.30;;;;;;;1.86;76.48;98532.16;104543;1269;95802;-71
2023/01/31 11:12:11;;;;;;;7.10;3.40;;;;;;;1.88;76.56;98526.17;104472;1267;95189;-69
2023/01/31 11:14:38;;;;;;;12.40;3.70;;;;;;;1.88;76.95;98530.59;104495;1267;95215;-70
2023/01/31 11:17:19;;;;;;;11.00;4.40;;;;;;;1.90;76.73;98534.23;104522;1267;96189;-72
2023/01/31 11:19:50;;;;;;;10.30;3.10;;;;;;;1.92;76.30;98529.77;104467;1280;108460;-68
2023/01/31 11:22:24;;;;;;;9.20;2.80;;;;;;;1.93;76.68;98527.45;104323;1269;95345;-69
2023/01/31 11:24:53;;;;;;;8.80;3.30;;;;;;;1.98;76.41;98525.55;104474;1267;95764;-70
2023/01/31 11:27:29;;;;;;;10.20;2.20;;;;;;;2.02;75.57;98519.35;104308;1278;109476;-70
2023/01/31 11:30:03;;;;;;;6.70;2.30;;;;;;;2.04;74.88;98518.98;104364;1270;98266;-71
2023/01/31 11:32:37;;;;;;;6.90;2.40;;;;;;;2.06;75.30;98512.99;104405;1268;107028;-72
2023/01/31 11:35:14;;;;;;;8.60;3.00;;;;;;;2.09;75.10;98514.64;104042;1271;95739;-70
2023/01/31 11:37:53;;;;;;;;;;;;;;;2.12;75.38;98508.91;104334;1268;95190;-68
2023/01/31 11:40:22;;;;;;;10.90;3.80;;;;;;;2.14;75.70;98502.56;104249;1268;109610;-71
2023/01/31 11:43:00;;;;;;;11.10;4.00;;;;;;;2.26;75.82;98500.99;104170;1268;99517;-68
2023/01/31 11:45:36;;;;;;;7.20;2.50;;;;;;;2.39;75.58;98505.38;104378;1268;108336;-72
2023/01/31 11:48:22;;;;;;;8.60;2.20;;;;;;;2.51;75.60;98499.53;104276;1279;95209;-71
2023/01/31 11:51:00;;;;;;;5.90;2.40;;;;;;;2.59;74.51;98502.16;104222;1269;95225;-68
2023/01/31 11:53:48;;;;;;;11.90;3.00;;;;;;;2.63;74.65;98497.95;104424;1268;109496;-68
2023/01/31 11:56:20;;;;;;;7.70;3.10;;;;;;;2.65;74.33;98491.64;104378;1280;97336;-68
2023/01/31 11:58:52;;;;;;;10.70;3.40;;;;;;;2.68;74.27;98487.30;104352;1269;108739;-68
2023/01/31 12:01:22;;;;;;;9.40;2.70;;;;;;;2.66;73.65;98482.98;104442;1266;95234;-68
2023/01/31 12:04:02;;;;;;;11.60;3.70;;;;;;;2.71;74.14;98475.59;104390;1267;95220;-68
2023/01/31 12:06:35;;;;;;;13.00;4.40;;;;;;;3.08;75.16;98470.56;104097;1269;109465;-75
2023/01/31 12:09:18;;;;;;;10.60;2.90;;;;;;;3.60;72.87;98470.64;104402;1270;99160;-69
2023/01/31 12:11:53;;;;;;;10.10;3.60;;;;;;;3.87;71.14;98473.10;104374;1281;107667;-73
2023/01/31 12:14:20;;;;;;;13.60;4.00;;;;;;;3.84;70.73;98477.11;104641;1279;96082;-73
2023/01/31 12:16:52;;;;;;;6.80;2.70;;;;;;;3.76;70.91;98469.00;104231;1285;96757;-70
2023/01/31 12:19:42;;;;;;;17.90;5.20;;;;;;;3.67;71.47;98463.25;104668;1268;108502;-71
2023/01/31 12:22:16;;;;;;;29.20;8.10;;;;;;;3.53;71.27;98458.34;104395;1270;99207;-68
2023/01/31 12:25:14;;;;;;;13.20;4.60;;;;;;;3.54;71.94;98460.63;104396;1279;108688;-70
2023/01/31 12:28:04;;;;;;;17.30;5.40;;;;;;;3.73;72.45;98453.29;104401;1270;95317;-74
2023/01/31 12:31:05;;;;;;;22.00;6.80;;;;;;;3.98;71.56;98448.80;104356;1269;95214;-71
2023/01/31 12:34:01;;;;;;;22.60;5.80;;;;;;;4.07;71.03;98446.97;104675;1267;110710;-66
2023/01/31 12:37:02;;;;;;;17.10;5.10;;;;;;;3.95;69.78;98444.35;104353;1269;98193;-72
2023/01/31 12:39:51;;;;;;;16.20;5.20;;;;;;;3.79;69.63;98442.81;104370;1269;107650;-73
2023/01/31 12:42:29;;;;;;;10.80;3.80;;;;;;;3.68;70.10;98441.64;104318;1281;95194;-68
2023/01/31 12:44:56;;;;;;;12.70;4.20;;;;;;;3.55;69.98;98444.52;104438;1268;95275;-68
2023/01/31 12:47:29;;;;;;;12.70;4.60;;;;;;;3.50;70.81;98448.64;104284;1269;95311;-67
2023/01/31 12:50:02;;;;;;;10.20;3.70;;;;;;;3.42;70.09;98450.45;104383;1268;99021;-67
2023/01/31 12:52:38;;;;;;;12.80;5.00;;;;;;;3.36;70.87;98445.63;104313;1268;108706;-72
2023/01/31 12:55:35;;;;;;;11.40;3.90;;;;;;;3.32;71.11;98442.05;104362;1267;95220;-68
2023/01/31 12:58:21;;;;;;;6.80;2.80;;;;;;;3.17;70.28;98438.95;104348;1280;96025;-71
2023/01/31 13:00:59;;;;;;;10.50;3.20;;;;;;;3.05;71.09;98437.74;104422;1266;110283;-68
2023/01/31 13:04:04;;;;;;;16.90;4.50;;;;;;;2.97;71.91;98432.05;104916;1260;99170;-67
2023/01/31 13:06:37;;;;;;;5.80;2.50;;;;;;;2.86;71.43;98433.45;104958;1262;108756;-67
2023/01/31 13:09:12;;;;;;;7.50;3.10;;;;;;;2.76;71.63;98431.32;104644;1263;95209;-67
2023/01/31 13:11:51;;;;;;;10.20;4.30;;;;;;;2.70;72.18;98432.27;104935;1262;96006;-67
2023/01/31 13:14:25;;;;;;;8.00;3.70;;;;;;;2.65;72.53;98432.60;104767;1258;109069;-67
2023/01/31 13:17:01;;;;;;;10.00;4.00;;;;;;;2.59;71.69;98435.66;104854;1261;99569;-67
2023/01/31 13:19:38;;;;;;;7.10;2.80;;;;;;;2.52;72.26;98431.48;104913;1260;108390;-67
2023/01/31 13:22:15;;;;;;;6.50;2.70;;;;;;;2.43;72.90;98431.33;104975;1262;95235;-68
2023/01/31 13:24:47;;;;;;;9.90;3.30;;;;;;;2.36;72.89;98429.16;104758;1269;95215;-67
2023/01/31 13:27:23;;;;;;;7.20;2.90;;;;;;;2.33;73.35;98426.45;104891;1260;107461;-67
2023/01/31 13:29:59;;;;;;;9.10;2.50;;;;;;;2.32;73.45;98426.29;104755;1260;99041;-73
2023/01/31 13:32:46;;;;;;;8.60;2.70;;;;;;;2.34;73.51;98427.48;104975;1260;107554;-73
2023/01/31 13:35:38;;;;;;;7.70;2.70;;;;;;;2.34;73.69;98431.27;104871;1257;95186;-71
2023/01/31 13:38:13;;;;;;;7.00;2.40;;;;;;;2.32;73.76;98433.79;104854;1260;95207;-70
2023/01/31 13:40:51;;;;;;;9.10;3.20;;;;;;;2.28;73.79;98432.48;104812;1262;109183;-66
2023/01/31 13:43:19;;;;;;;7.50;2.80;;;;;;;2.22;74.33;98426.19;104726;1260;98901;-69
2023/01/31 13:45:57;;;;;;;7.50;3.40;;;;;;;2.21;74.73;98428.29;104779;1265;108733;-67
2023/01/31 13:48:40;;;;;;;7.60;2.90;;;;;;;2.19;74.82;98424.00;104877;1262;96142;-72
2023/01/31 13:51:34;;;;;;;10.70;3.60;;;;;;;2.20;75.10;98421.46;104807;1260;95218;-72
2023/01/31 13:54:39;;;;;;;12.80;3.70;;;;;;;2.21;75.21;98424.73;104846;1256;110938;-72
2023/01/31 13:57:19;;;;;;;8.60;3.20;;;;;;;2.15;75.49;98424.80;104845;1261;98722;-70
2023/01/31 13:59:52;;;;;;;10.10;2.80;;;;;;;2.12;75.91;98425.71;104743;1273;108577;-68
2023/01/31 14:02:19;;;;;;;8.00;2.80;;;;;;;2.09;76.88;98427.05;104912;1273;95134;-72
2023/01/31 14:04:47;;;;;;;6.80;3.20;;;;;;;2.06;77.48;98430.61;104997;1261;95186;-69
2023/01/31 14:07:17;;;;;;;8.40;3.00;;;;;;;2.04;77.45;98431.13;104956;1260;109500;-68
2023/01/31 14:09:51;;;;;;;8.30;3.30;;;;;;;2.07;77.50;98435.96;104818;1257;99198;-68
2023/01/31 14:12:18;;;;;;;7.80;3.10;;;;;;;2.08;78.23;98429.81;104836;1271;107522;-70
2023/01/31 14:14:53;;;;;;;7.60;3.20;;;;;;;2.08;78.26;98430.06;104673;1272;97429;-69
2023/01/31 14:17:20;;;;;;;10.50;3.30;;;;;;;2.02;78.41;98427.83;104796;1256;96592;-70
2023/01/31 14:19:48;;;;;;;6.30;2.50;;;;;;;1.98;78.53;98425.54;104905;1256;97499;-74
2023/01/31 14:22:30;;;;;;;10.60;5.40;;;;;;;1.95;79.01;98419.56;104895;1261;99276;-70
2023/01/31 14:25:12;;;;;;;14.00;4.60;;;;;;;1.90;79.31;98417.76;104676;1260;108611;-67
2023/01/31 14:27:51;;;;;;;11.20;4.30;;;;;;;1.86;79.59;98407.53;104999;1267;96541;-67
2023/01/31 14:30:46;;;;;;;8.60;3.00;;;;;;;1.83;79.40;98402.71;104634;1264;96494;-67
2023/01/31 14:33:26;;;;;;;7.10;3.60;;;;;;;1.77;79.53;98402.30;104892;1260;110949;-68
2023/01/31 14:36:18;;;;;;;9.20;3.90;;;;;;;1.72;79.66;98398.77;104794;1261;99200;-67
2023/01/31 14:39:11;;;;;;;14.70;5.90;;;;;;;1.70;79.95;98394.86;104888;1261;108559;-67
2023/01/31 14:41:59;;;;;;;19.50;7.20;;;;;;;1.69;79.86;98391.23;104948;1256;97727;-66
2023/01/31 14:44:52;;;;;;;14.20;6.20;;;;;;;1.70;79.93;98394.42;104868;1261;96677;-66
2023/01/31 14:47:47;;;;;;;28.30;9.00;;;;;;;1.70;80.32;98394.52;104768;1261;110921;-66
2023/01/31 14:50:32;;;;;;;38.90;13.40;;;;;;;1.71;80.02;98393.67;104855;1260;99205;-68
2023/01/31 14:53:05;;;;;;;27.40;10.10;;;;;;;1.73;79.93;98393.36;104711;1260;108629;-71
2023/01/31 14:55:57;;;;;;;20.80;8.30;;;;;;;1.69;80.62;98390.64;104974;1273;96642;-68
2023/01/31 14:58:26;;;;;;;;;;;;;;;1.68;80.57;98392.89;105242;1264;96490;-68
2023/01/31 15:00:59;;;;;;;35.10;11.60;;;;;;;1.63;81.12;98393.30;104976;1260;110767;-68
2023/01/31 15:03:37;;;;;;;21.80;7.70;;;;;;;1.57;81.26;98389.98;105004;1260;98288;-68
2023/01/31 15:06:26;;;;;;;22.00;7.00;;;;;;;1.49;81.89;98383.88;104955;1263;107232;-66
2023/01/31 15:09:15;;;;;;;26.80;9.80;;;;;;;1.42;81.93;98389.39;104910;1260;96612;-68
2023/01/31 15:11:46;;;;;;;33.70;11.30;;;;;;;1.36;82.05;98386.16;104942;1261;96545;-67
2023/01/31 15:14:29;;;;;;;33.80;11.80;;;;;;;1.32;82.13;98384.41;104718;1261;110876;-66
2023/01/31 15:17:20;;;;;;;17.80;6.30;;;;;;;1.28;82.42;98387.79;104933;1260;99066;-67
2023/01/31 15:20:17;;;;;;;13.00;5.80;;;;;;;1.21;82.89;98384.13;104906;1261;109511;-71
2023/01/31 15:22:45;;;;;;;16.70;6.10;;;;;;;1.18;82.92;98384.31;104865;1257;96925;-67
2023/01/31 15:25:33;;;;;;;22.60;8.20;;;;;;;1.19;82.90;98378.59;104975;1261;97838;-70
2023/01/31 15:28:02;;;;;;;28.80;9.40;;;;;;;1.18;83.47;98366.70;104936;1271;111159;-67
2023/01/31 15:30:34;;;;;;;22.40;6.90;;;;;;;1.18;83.13;98363.31;104842;1260;98995;-67
2023/01/31 15:33:08;;;;;;;20.10;7.60;;;;;;;1.18;83.44;98353.64;104786;1256;108761;-67
2023/01/31 15:35:53;;;;;;;31.60;12.60;;;;;;;1.19;83.35;98352.52;104943;1260;96591;-67
2023/01/31 15:39:02;;;;;;;25.40;8.90;;;;;;;1.21;83.29;98348.81;104979;1260;96801;-67
2023/01/31 15:41:41;;;;;;;16.60;7.20;;;;;;;1.19;83.74;98341.35;104965;1262;109603;-67
2023/01/31 15:44:29;;;;;;;20.80;7.40;;;;;;;1.15;83.98;98343.64;104959;1257;98183;-67
2023/01/31 15:47:02;;;;;;;14.30;5.80;;;;;;;1.10;84.12;98336.86;104823;1256;107243;-67
2023/01/31 15:49:32;;;;;;;9.00;5.00;;;;;;;1.05;84.51;98325.39;104936;1260;96575;-67
2023/01/31 15:52:19;;;;;;;15.60;6.30;;;;;;;0.98;85.00;98319.66;104925;1256;97731;-67
2023/01/31 15:54:57;;;;;;;18.50;7.60;;;;;;;0.95;85.17;98317.38;104906;1257;109845;-68
2023/01/31 15:57:32;;;;;;;14.40;6.40;;;;;;;0.93;85.33;98314.92;104826;1261;98882;-67
2023/01/31 15:59:59;;;;;;;12.50;6.10;;;;;;;0.94;85.42;98320.98;104911;1260;107137;-66
2023/01/31 16:02:29;;;;;;;14.30;5.40;;;;;;;0.96;85.58;98326.34;104831;1261;96648;-67
2023/01/31 16:04:57;;;;;;;20.80;8.20;;;;;;;0.96;85.83;98322.45;104910;1260;97455;-67
2023/01/31 16:07:28;;;;;;;24.60;9.00;;;;;;;0.99;85.49;98329.56;104843;1262;111239;-67
2023/01/31 16:09:56;;;;;;;;;;;;;;;1.00;85.54;98326.27;104812;1262;100542;-66
2023/01/31 16:12:25;;;;;;;17.60;7.00;;;;;;;0.98;86.05;98329.59;104770;1260;108571;-70
2023/01/31 16:14:58;;;;;;;19.40;8.90;;;;;;;0.97;86.20;98325.54;104793;1261;97891;-76
2023/01/31 16:17:27;;;;;;;26.80;11.70;;;;;;;0.98;86.14;98329.33;104975;1271;96554;-70
2023/01/31 16:19:55;;;;;;;19.10;7.50;;;;;;;1.00;86.38;98323.61;104943;1261;110910;-71
2023/01/31 16:22:31;;;;;;;407.60;113.70;;;;;;;1.03;86.64;98326.70;104963;1271;97960;-71
2023/01/31 16:25:01;;;;;;;591.50;163.40;;;;;;;1.04;86.76;98327.31;104937;1260;108290;-72
2023/01/31 16:27:41;;;;;;;940.10;295.80;;;;;;;1.05;86.65;98323.71;104949;1256;97804;-70
2023/01/31 16:30:15;;;;;;;406.80;109.30;;;;;;;1.07;86.87;98324.90;104973;1257;96821;-68
2023/01/31 16:32:45;;;;;;;271.50;105.60;;;;;;;1.11;86.66;98328.12;104804;1271;110896;-68
2023/01/31 16:35:25;;;;;;;161.50;54.30;;;;;;;1.12;87.01;98327.16;104903;1262;99182;-69
2023/01/31 16:38:06;;;;;;;199.00;92.00;;;;;;;1.12;87.19;98330.23;104811;1262;108191;-69
2023/01/31 16:40:43;;;;;;;186.20;97.70;;;;;;;1.11;87.46;98328.55;104790;1257;96540;-70
2023/01/31 16:43:23;;;;;;;246.10;128.80;;;;;;;1.10;87.39;98335.98;104675;1262;96610;-69
2023/01/31 16:45:54;;;;;;;103.50;49.80;;;;;;;1.09;87.53;98335.87;104735;1262;109549;-70
2023/01/31 16:48:30;;;;;;;176.50;91.20;;;;;;;1.05;87.89;98339.95;104741;1273;98329;-68
2023/01/31 16:51:09;;;;;;;187.40;93.60;;;;;;;1.00;88.23;98341.77;104926;1262;109411;-70
2023/01/31 16:53:42;;;;;;;68.00;31.90;;;;;;;0.98;88.53;98340.27;104684;1262;96593;-67
2023/01/31 16:56:12;;;;;;;61.70;22.70;;;;;;;0.97;88.74;98340.43;104702;1262;98353;-67
2023/01/31 16:58:51;;;;;;;69.80;28.30;;;;;;;0.98;88.93;98333.20;104920;1263;109871;-67
2023/01/31 17:01:23;;;;;;;269.70;161.00;;;;;;;0.98;88.79;98332.77;104551;1262;98569;-66
2023/01/31 17:03:59;;;;;;;221.90;123.80;;;;;;;1.01;88.70;98340.09;104574;1259;107693;-66
2023/01/31 17:06:27;;;;;;;186.90;110.40;;;;;;;1.00;88.65;98337.49;104688;1265;96546;-67
2023/01/31 17:08:54;;;;;;;114.10;54.50;;;;;;;0.98;88.82;98336.77;104650;1261;96767;-68
2023/01/31 17:11:21;;;;;;;181.60;87.10;;;;;;;1.00;88.83;98333.17;104653;1265;96617;-66
2023/01/31 17:14:08;;;;;;;107.70;52.30;;;;;;;1.03;88.67;98325.70;104642;1265;98916;-66
2023/01/31 17:16:34;;;;;;;103.70;44.70;;;;;;;1.04;88.87;98324.04;104664;1259;97130;-67
2023/01/31 17:19:02;;;;;;;98.60;44.80;;;;;;;1.03;88.88;98318.89;104615;1264;97493;-67
2023/01/31 17:21:36;;;;;;;205.60;111.00;;;;;;;1.02;89.01;98317.48;104642;1262;97456;-68
2023/01/31 17:24:03;;;;;;;75.80;27.20;;;;;;;0.98;88.94;98318.70;104702;1261;110531;-67
2023/01/31 17:26:30;;;;;;;88.30;39.40;;;;;;;0.92;89.00;98319.25;104687;1264;98206;-67
2023/01/31 17:28:58;;;;;;;101.80;40.60;;;;;;;0.85;89.52;98322.70;104634;1260;108879;-67
2023/01/31 17:31:29;;;;;;;79.70;31.80;;;;;;;0.80;89.67;98325.89;104642;1265;96556;-67
2023/01/31 17:33:57;;;;;;;73.30;28.40;;;;;;;0.75;89.62;98321.75;104517;1264;96598;-67
2023/01/31 17:36:24;;;;;;;335.50;137.00;;;;;;;0.72;89.85;98321.09;104605;1265;96569;-69
2023/01/31 17:38:52;;;;;;;153.80;64.80;;;;;;;0.73;89.84;98315.81;104538;1270;96570;-70
2023/01/31 17:41:22;;;;;;;162.50;62.50;;;;;;;0.75;90.00;98307.94;104804;1265;96588;-70
2023/01/31 17:43:49;;;;;;;120.10;39.80;;;;;;;0.79;89.94;98300.27;104714;1272;96542;-69
2023/01/31 17:46:18;;;;;;;188.80;70.40;;;;;;;0.83;89.84;98298.45;104861;1262;97744;-69
2023/01/31 17:48:45;;;;;;;82.30;30.00;;;;;;;0.86;90.06;98297.30;105047;1262;110067;-70
2023/01/31 17:51:12;;;;;;;60.00;22.40;;;;;;;0.89;90.08;98288.95;104988;1262;96551;-72
2023/01/31 17:53:40;;;;;;;142.50;50.30;;;;;;;0.92;89.93;98284.44;105023;1262;97489;-70
2023/01/31 17:56:17;;;;;;;98.00;43.00;;;;;;;0.94;89.87;98279.54;104925;1262;96575;-69
2023/01/31 17:58:44;;;;;;;81.30;27.70;;;;;;;0.94;89.99;98278.88;104941;1262;96924;-71
2023/01/31 18:01:13;;;;;;;131.10;43.90;;;;;;;0.92;90.18;98273.54;104944;1262;110527;-70
2023/01/31 18:03:40;;;;;;;90.70;34.80;;;;;;;0.88;90.23;98267.79;104763;1262;99179;-69
2023/01/31 18:06:09;;;;;;;75.80;27.40;;;;;;;0.84;90.42;98260.86;104920;1262;107661;-70
2023/01/31 18:08:36;;;;;;;365.80;137.30;;;;;;;0.81;90.51;98255.12;104965;1259;97310;-70
2023/01/31 18:11:05;;;;;;;179.70;64.90;;;;;;;0.79;90.74;98253.61;104959;1262;97170;-70
2023/01/31 18:13:34;;;;;;;553.00;250.90;;;;;;;0.79;90.59;98248.91;104930;1272;110838;-70
2023/01/31 18:16:10;;;;;;;58.60;21.80;;;;;;;0.82;90.33;98251.07;104991;1262;99268;-72
2023/01/31 18:18:39;;;;;;;305.30;121.20;;;;;;;0.85;90.49;98250.40;105017;1262;108518;-73
2023/01/31 18:21:15;;;;;;;327.20;105.60;;;;;;;0.89;90.25;98242.38;105055;1262;96551;-73
2023/01/31 18:23:42;;;;;;;323.20;116.20;;;;;;;0.91;90.30;98237.05;105036;1262;97313;-70
2023/01/31 18:26:10;;;;;;;350.80;123.10;;;;;;;0.92;90.47;98235.93;105010;1261;96537;-72
2023/01/31 18:28:37;;;;;;;253.90;78.20;;;;;;;0.93;90.44;98235.50;105015;1260;99130;-69
2023/01/31 18:31:09;;;;;;;263.90;103.10;;;;;;;0.92;90.33;98234.09;104994;1275;96572;-69
2023/01/31 18:33:36;;;;;;;407.40;146.00;;;;;;;0.89;90.28;98232.23;105019;1259;97829;-69
2023/01/31 18:36:04;;;;;;;116.30;38.70;;;;;;;0.86;90.40;98230.82;105007;1257;96514;-69
2023/01/31 18:38:31;;;;;;;293.40;100.10;;;;;;;0.81;90.44;98224.85;105565;1260;109540;-67
2023/01/31 18:41:07;;;;;;;196.80;65.30;;;;;;;0.75;90.68;98214.89;104859;1260;96644;-67
2023/01/31 18:43:34;;;;;;;162.20;53.10;;;;;;;0.72;90.81;98217.35;104603;1280;107488;-67
2023/01/31 18:46:05;;;;;;;251.30;77.00;;;;;;;0.68;91.07;98213.71;104787;1264;96553;-67
2023/01/31 18:48:33;;;;;;;120.40;48.40;;;;;;;0.64;91.42;98210.98;104947;1262;96907;-68
2023/01/31 18:51:06;;;;;;;219.80;67.00;;;;;;;0.63;91.41;98204.67;104966;1263;110714;-70
2023/01/31 18:53:35;;;;;;;122.20;38.80;;;;;;;0.60;91.82;98204.43;105009;1261;97215;-68
2023/01/31 18:56:04;;;;;;;126.30;42.70;;;;;;;0.60;91.93;98199.90;104660;1262;109978;-69
2023/01/31 18:58:36;;;;;;;634.20;205.60;;;;;;;0.60;91.85;98197.42;104905;1258;96565;-72
2023/01/31 19:01:05;;;;;;;341.50;111.00;;;;;;;0.61;91.78;98195.65;104846;1262;96737;-73
2023/01/31 19:03:33;;;;;;;144.40;45.20;;;;;;;0.61;91.95;98194.52;105048;1262;110862;-69
2023/01/31 19:06:11;;;;;;;289.60;95.20;;;;;;;0.59;92.18;98186.73;104934;1273;98834;-69
2023/01/31 19:08:39;;;;;;;88.50;33.00;;;;;;;0.54;92.50;98188.43;105190;1258;109794;-71
2023/01/31 19:11:08;;;;;;;174.80;61.40;;;;;;;0.50;92.71;98178.86;105162;1259;96488;-71
2023/01/31 19:13:36;;;;;;;208.80;71.70;;;;;;;0.47;92.88;98174.36;105141;1253;96543;-72
2023/01/31 19:16:07;;;;;;;98.90;38.20;;;;;;;0.45;92.88;98173.31;104979;1259;110099;-72
2023/01/31 19:18:34;;;;;;;111.00;42.20;;;;;;;0.42;93.48;98163.97;105138;1259;99102;-72
2023/01/31 19:21:11;;;;;;;175.80;66.60;;;;;;;0.42;93.68;98172.23;105074;1259;108588;-71
2023/01/31 19:23:38;;;;;;;84.60;32.90;;;;;;;0.44;93.72;98166.20;105005;1259;96575;-72
2023/01/31 19:26:05;;;;;;;113.00;43.60;;;;;;;0.48;93.77;98153.02;105175;1259;96530;-72
2023/01/31 19:28:37;;;;;;;51.90;19.90;;;;;;;0.51;93.80;98150.92;105187;1258;96553;-73
2023/01/31 19:31:09;;;;;;;40.60;18.00;;;;;;;0.52;93.88;98150.73;105240;1259;99054;-72
2023/01/31 19:33:37;;;;;;;99.30;42.50;;;;;;;0.53;93.97;98150.29;105191;1257;110302;-72
2023/01/31 19:36:13;;;;;;;51.50;23.50;;;;;;;0.55;93.93;98139.73;106283;1259;96684;-72
2023/01/31 19:38:40;;;;;;;40.80;19.10;;;;;;;0.56;93.92;98140.81;105221;1259;96553;-72
2023/01/31 19:41:13;;;;;;;67.30;29.30;;;;;;;0.55;93.96;98130.94;105189;1259;97002;-73
2023/01/31 19:43:40;;;;;;;57.70;26.70;;;;;;;0.54;94.16;98128.35;105229;1259;99251;-73
2023/01/31 19:46:07;;;;;;;39.60;15.70;;;;;;;0.52;94.03;98127.87;105031;1259;96786;-73
2023/01/31 19:48:34;;;;;;;80.20;35.60;;;;;;;0.54;94.21;98118.46;105081;1259;96549;-73
2023/01/31 19:51:10;;;;;;;109.20;45.20;;;;;;;0.57;94.08;98121.35;105171;1253;100160;-73
2023/01/31 19:53:38;;;;;;;80.30;31.60;;;;;;;0.60;93.92;98113.02;105195;1259;110901;-73
2023/01/31 19:56:06;;;;;;;81.80;33.80;;;;;;;0.63;93.94;98105.43;105240;1259;99385;-73
2023/01/31 19:58:33;;;;;;;31.00;13.20;;;;;;;0.66;93.72;98116.50;105134;1267;107521;-73
2023/01/31 20:01:02;;;;;;;38.90;15.50;;;;;;;0.68;93.85;98114.73;105057;1253;96545;-73
2023/01/31 20:03:29;;;;;;;39.70;14.80;;;;;;;0.71;93.67;98121.92;105241;1259;96632;-73
2023/01/31 20:06:05;;;;;;;53.50;22.10;;;;;;;0.73;93.81;98118.42;105219;1253;97225;-74
2023/01/31 20:08:32;;;;;;;58.70;24.50;;;;;;;0.75;93.70;98117.89;105240;1259;99867;-73
2023/01/31 20:11:00;;;;;;;116.00;50.70;;;;;;;0.74;93.63;98118.98;105108;1259;96616;-74
2023/01/31 20:13:27;;;;;;;46.10;19.00;;;;;;;0.71;93.77;98117.29;105168;1268;96551;-73
2023/01/31 20:15:59;;;;;;;29.70;15.20;;;;;;;0.69;93.96;98109.17;105183;1263;96559;-74
2023/01/31 20:18:27;;;;;;;25.10;12.40;;;;;;;0.66;94.17;98108.73;104999;1259;110858;-74
2023/01/31 20:20:54;;;;;;;37.20;14.10;;;;;;;0.65;94.28;98105.33;105214;1258;97464;-76
2023/01/31 20:23:21;;;;;;;30.20;13.10;;;;;;;0.65;94.37;98100.80;105073;1253;96646;-75
2023/01/31 20:25:50;;;;;;;50.40;21.50;;;;;;;0.65;94.52;98096.75;105151;1268;96549;-74
2023/01/31 20:28:18;;;;;;;19.80;10.60;;;;;;;0.67;94.40;98098.17;105239;1260;97742;-73
2023/01/31 20:30:45;;;;;;;31.50;15.60;;;;;;;0.69;94.37;98097.64;106370;1254;111089;-74